Time;durP1;ratioP1;P1;durP2;ratioP2;P2;SDS_P1;SDS_P2;PMS_P1;PMS_P2;Temp;Humidity;BMP_temperature;BMP_pressure;BME280_temperature;BME280_humidity;BME280_pressure;Samples;Min_cycle;Max_cycle;Signal;HPM_P1;HPM_P2
2022/06/14 00:01:48;;;;;;;0.70;0.70;;;;;;;-140.05;100.00;61859.38;5102609;28;20714;-61
2022/06/14 00:04:15;;;;;;;2.60;1.47;;;;;;;-140.05;100.00;61859.38;5107982;28;20202;-62
2022/06/14 00:06:42;;;;;;;2.23;1.37;;;;;;;-140.05;100.00;61859.38;5100603;28;20199;-61
2022/06/14 00:09:10;;;;;;;0.40;0.40;;;;;;;-140.05;100.00;61859.38;5111362;28;20209;-61
2022/06/14 00:11:39;;;;;;;0.90;0.60;;;;;;;-140.05;100.00;61859.38;5111573;28;20222;-60
2022/06/14 00:14:09;;;;;;;2.17;1.80;;;;;;;-140.05;100.00;61859.38;5111509;28;20194;-62
2022/06/14 00:16:38;;;;;;;1.70;1.07;;;;;;;-140.05;100.00;61859.38;5105497;28;20195;-61
2022/06/14 00:19:06;;;;;;;0.50;0.50;;;;;;;-140.05;100.00;61859.38;5104074;28;20209;-61
2022/06/14 00:21:34;;;;;;;0.67;0.67;;;;;;;-140.05;100.00;61859.38;5097159;28;20190;-61
2022/06/14 00:24:01;;;;;;;3.27;1.27;;;;;;;-140.05;100.00;61859.38;5111232;28;20198;-61
2022/06/14 00:26:29;;;;;;;1.33;0.70;;;;;;;-140.05;100.00;61859.38;5110926;28;20230;-61
2022/06/14 00:28:56;;;;;;;2.10;1.20;;;;;;;-140.05;100.00;61859.38;5111339;28;20277;-61
2022/06/14 00:31:25;;;;;;;0.53;0.47;;;;;;;-140.05;100.00;61859.38;5108616;28;20755;-61
2022/06/14 00:33:52;;;;;;;0.53;0.53;;;;;;;-140.05;100.00;61859.38;5099585;28;20696;-61
2022/06/14 00:36:28;;;;;;;0.73;0.73;;;;;;;-140.05;100.00;61859.38;5109862;28;20194;-61
2022/06/14 00:38:58;;;;;;;1.20;1.17;;;;;;;-140.05;100.00;61859.38;5099109;28;20194;-61
2022/06/14 00:41:38;;;;;;;0.93;0.60;;;;;;;-140.05;100.00;61859.38;5109643;28;20198;-61
2022/06/14 00:44:10;;;;;;;0.93;0.80;;;;;;;-140.05;100.00;61859.38;5099400;28;20256;-60
2022/06/14 00:46:46;;;;;;;0.40;0.40;;;;;;;-140.05;100.00;61859.38;5109585;28;20190;-62
2022/06/14 00:49:22;;;;;;;0.60;0.60;;;;;;;-140.05;100.00;61859.38;5098091;28;20251;-62
2022/06/14 00:52:00;;;;;;;0.50;0.50;;;;;;;-140.05;100.00;61859.38;5110705;28;20286;-61
2022/06/14 00:54:39;;;;;;;1.23;1.13;;;;;;;-140.05;100.00;61859.38;5110568;28;20202;-61
2022/06/14 00:57:20;;;;;;;0.60;0.60;;;;;;;-140.05;100.00;61859.38;5108011;28;20190;-61
2022/06/14 01:00:08;;;;;;;0.70;0.70;;;;;;;-140.05;100.00;61859.38;5099270;28;20200;-61
2022/06/14 01:02:43;;;;;;;0.57;0.57;;;;;;;-140.05;100.00;61859.38;5110533;27;20684;-61
2022/06/14 01:05:17;;;;;;;0.70;0.70;;;;;;;-140.05;100.00;61859.38;5110803;28;20617;-60
2022/06/14 01:07:47;;;;;;;0.33;0.33;;;;;;;-140.05;100.00;61859.38;5106507;28;20229;-61
2022/06/14 01:10:25;;;;;;;0.33;0.33;;;;;;;-140.05;100.00;61859.38;5100553;28;20233;-61
2022/06/14 01:13:03;;;;;;;1.03;0.97;;;;;;;-140.05;100.00;61859.38;5105600;28;20704;-61
2022/06/14 01:15:33;;;;;;;1.13;1.00;;;;;;;-140.05;100.00;61859.38;5102138;28;20194;-61
2022/06/14 01:18:09;;;;;;;0.80;0.80;;;;;;;-140.05;100.00;61859.38;5110375;28;20198;-62
2022/06/14 01:20:37;;;;;;;0.70;0.60;;;;;;;-140.05;100.00;61859.38;5098762;28;20186;-60
2022/06/14 01:23:06;;;;;;;1.57;0.93;;;;;;;-140.05;100.00;61859.38;5103813;28;20214;-61
2022/06/14 01:25:36;;;;;;;0.97;0.97;;;;;;;-140.05;100.00;61859.38;5100406;28;20232;-61
2022/06/14 01:28:04;;;;;;;0.60;0.60;;;;;;;-140.05;100.00;61859.38;5107008;28;20199;-61
2022/06/14 01:30:36;;;;;;;1.90;1.10;;;;;;;-140.05;100.00;61859.38;5099398;28;20206;-61
2022/06/14 01:33:08;;;;;;;2.07;1.67;;;;;;;-140.05;100.00;61859.38;5093156;28;20195;-63
2022/06/14 01:35:38;;;;;;;0.70;0.70;;;;;;;-140.05;100.00;61859.38;5098661;28;20695;-62
2022/06/14 01:38:11;;;;;;;1.13;1.13;;;;;;;-140.05;100.00;61859.38;5097282;28;20195;-62
2022/06/14 01:41:05;;;;;;;1.17;1.07;;;;;;;-140.05;100.00;61859.38;5108221;28;20229;-61
2022/06/14 01:43:53;;;;;;;0.80;0.80;;;;;;;-140.05;100.00;61859.38;5109375;28;20194;-62
2022/06/14 01:46:24;;;;;;;2.70;1.67;;;;;;;-140.05;100.00;61859.38;5110137;28;20214;-61
2022/06/14 01:52:23;;;;;;;1.23;1.13;;;;;;;-140.05;100.00;61859.38;5104251;28;20575;-62
2022/06/14 01:55:19;;;;;;;0.80;0.73;;;;;;;-140.05;100.00;61859.38;5091793;28;20587;-62
2022/06/14 01:58:02;;;;;;;0.80;0.80;;;;;;;-140.05;100.00;61859.38;5080447;28;20211;-61
2022/06/14 02:00:35;;;;;;;0.40;0.40;;;;;;;-140.05;100.00;61859.38;5103645;28;20195;-62
2022/06/14 02:06:39;;;;;;;0.83;0.83;;;;;;;-140.05;100.00;61859.38;5096670;28;20205;-60
2022/06/14 02:09:19;;;;;;;0.70;0.70;;;;;;;-140.05;100.00;61859.38;5109652;28;20198;-60
2022/06/14 02:11:46;;;;;;;0.60;0.60;;;;;;;-140.05;100.00;61859.38;5099884;28;20735;-61
2022/06/14 02:14:19;;;;;;;0.40;0.40;;;;;;;-140.05;100.00;61859.38;5103818;28;20241;-62
2022/06/14 02:17:15;;;;;;;0.37;0.37;;;;;;;-140.05;100.00;61859.38;5109120;28;20190;-62
2022/06/14 02:20:02;;;;;;;0.83;0.83;;;;;;;-140.05;100.00;61859.38;5109158;28;20194;-61
2022/06/14 02:22:38;;;;;;;8.53;2.70;;;;;;;-140.05;100.00;61859.38;5108800;28;20210;-61
2022/06/14 02:25:14;;;;;;;1.30;1.20;;;;;;;-140.05;100.00;61859.38;5102321;28;20669;-62
2022/06/14 02:27:53;;;;;;;0.40;0.40;;;;;;;-140.05;100.00;61859.38;5103105;28;20204;-60
2022/06/14 02:30:27;;;;;;;0.47;0.47;;;;;;;-140.05;100.00;61859.38;5096663;28;20217;-60
2022/06/14 02:33:19;;;;;;;0.70;0.70;;;;;;;-140.05;100.00;61859.38;5094278;28;20193;-60
2022/06/14 02:35:57;;;;;;;0.53;0.53;;;;;;;-140.05;100.00;61859.38;5101351;28;20208;-60
2022/06/14 02:38:37;;;;;;;1.43;1.33;;;;;;;-140.05;100.00;61859.38;5092711;28;20574;-61
2022/06/14 02:41:14;;;;;;;1.23;1.13;;;;;;;-140.05;100.00;61859.38;5108880;28;20208;-62
2022/06/14 02:43:45;;;;;;;1.07;0.80;;;;;;;-140.05;100.00;61859.38;5108218;28;20220;-61
2022/06/14 02:46:20;;;;;;;0.87;0.70;;;;;;;-140.05;100.00;61859.38;5094699;28;20195;-61
2022/06/14 02:49:00;;;;;;;1.73;0.60;;;;;;;-140.05;100.00;61859.38;5092166;28;20202;-65
2022/06/14 02:51:33;;;;;;;0.70;0.47;;;;;;;-140.05;100.00;61859.38;5108691;28;20425;-61
2022/06/14 02:54:26;;;;;;;0.73;0.73;;;;;;;-140.05;100.00;61859.38;5103605;28;20199;-60
2022/06/14 02:57:05;;;;;;;0.70;0.70;;;;;;;-140.05;100.00;61859.38;5102506;28;20194;-61
2022/06/14 02:59:45;;;;;;;0.80;0.80;;;;;;;-140.05;100.00;61859.38;5094761;28;20194;-61
2022/06/14 03:02:18;;;;;;;0.67;0.67;;;;;;;-140.05;100.00;61859.38;5093964;28;20202;-61
2022/06/14 03:04:54;;;;;;;0.53;0.53;;;;;;;-140.05;100.00;61859.38;5101154;28;20279;-60
2022/06/14 03:07:29;;;;;;;0.70;0.60;;;;;;;-140.05;100.00;61859.38;5092910;28;20196;-62
2022/06/14 03:09:57;;;;;;;0.97;0.90;;;;;;;-140.05;100.00;61859.38;5095303;28;21027;-61
2022/06/14 03:12:42;;;;;;;0.57;0.57;;;;;;;-140.05;100.00;61859.38;5107173;28;20436;-61
2022/06/14 03:15:20;;;;;;;0.47;0.47;;;;;;;-140.05;100.00;61859.38;5108053;28;20677;-61
2022/06/14 03:18:25;;;;;;;0.40;0.40;;;;;;;-140.05;100.00;61859.38;5107962;28;20376;-61
2022/06/14 03:20:54;;;;;;;0.97;0.93;;;;;;;-140.05;100.00;61859.38;5100423;28;20198;-61
2022/06/14 03:23:29;;;;;;;0.70;0.57;;;;;;;-140.05;100.00;61859.38;5107947;27;20267;-61
2022/06/14 03:26:05;;;;;;;1.53;1.07;;;;;;;-140.05;100.00;61859.38;5092289;28;20579;-61
2022/06/14 03:28:45;;;;;;;0.77;0.77;;;;;;;-140.05;100.00;61859.38;5096056;28;20282;-61
2022/06/14 03:31:38;;;;;;;0.47;0.47;;;;;;;-140.05;100.00;61859.38;5100971;28;20214;-61
2022/06/14 03:34:11;;;;;;;1.10;0.83;;;;;;;-140.05;100.00;61859.38;5090343;28;20982;-62
2022/06/14 03:36:38;;;;;;;0.60;0.53;;;;;;;-140.05;100.00;61859.38;5107783;28;20186;-61
2022/06/14 03:39:16;;;;;;;0.47;0.47;;;;;;;-140.05;100.00;61859.38;5100626;28;20195;-60
2022/06/14 03:41:49;;;;;;;1.07;0.80;;;;;;;-140.05;100.00;61859.38;5103370;28;20205;-61
2022/06/14 03:44:18;;;;;;;2.03;1.83;;;;;;;-140.05;100.00;61859.38;5101002;28;20567;-61
2022/06/14 03:47:07;;;;;;;3.80;2.60;;;;;;;-140.05;100.00;61859.38;5098974;28;20440;-61
2022/06/14 03:49:40;;;;;;;1.23;1.13;;;;;;;-140.05;100.00;61859.38;5088158;28;20252;-61
2022/06/14 03:52:31;;;;;;;1.23;1.17;;;;;;;-140.05;100.00;61859.38;5105201;28;20657;-59
2022/06/14 03:55:23;;;;;;;0.70;0.70;;;;;;;-140.05;100.00;61859.38;5107692;28;20625;-61
2022/06/14 03:57:58;;;;;;;1.57;1.20;;;;;;;-140.05;100.00;61859.38;5099236;28;20187;-61
2022/06/14 04:00:50;;;;;;;1.30;0.93;;;;;;;-140.05;100.00;61859.38;5085663;28;20203;-60
2022/06/14 04:03:34;;;;;;;1.23;1.13;;;;;;;-140.05;100.00;61859.38;5099945;28;20190;-61
2022/06/14 04:06:04;;;;;;;3.33;1.77;;;;;;;-140.05;100.00;61859.38;5094987;28;20255;-60
2022/06/14 04:08:40;;;;;;;1.43;1.23;;;;;;;-140.05;100.00;61859.38;5093264;28;20982;-61
2022/06/14 04:11:19;;;;;;;2.27;1.67;;;;;;;-140.05;100.00;61859.38;5094714;28;20271;-62
2022/06/14 04:14:08;;;;;;;2.70;1.07;;;;;;;-140.05;100.00;61859.38;5092626;28;20199;-62
2022/06/14 04:16:44;;;;;;;1.37;1.27;;;;;;;-140.05;100.00;61859.38;5107584;28;20194;-62
2022/06/14 04:19:29;;;;;;;1.33;1.23;;;;;;;-140.05;100.00;61859.38;5099380;28;20226;-61
2022/06/14 04:22:01;;;;;;;1.20;1.10;;;;;;;-140.05;100.00;61859.38;5101939;28;20278;-61
2022/06/14 04:24:33;;;;;;;1.53;1.10;;;;;;;-140.05;100.00;61859.38;5090754;28;20237;-61
2022/06/14 04:27:23;;;;;;;0.80;0.80;;;;;;;-140.05;100.00;61859.38;5104301;28;20673;-62
2022/06/14 04:30:20;;;;;;;1.67;1.07;;;;;;;-140.05;100.00;61859.38;5111593;28;20322;-61
2022/06/14 04:32:55;;;;;;;0.80;0.80;;;;;;;-140.05;100.00;61859.38;5096770;28;20218;-62
2022/06/14 04:35:45;;;;;;;2.43;1.80;;;;;;;-140.05;100.00;61859.38;5098255;28;20627;-66
2022/06/14 04:38:37;;;;;;;13.57;5.63;;;;;;;-140.05;100.00;61859.38;5097326;28;20214;-64
2022/06/14 04:41:09;;;;;;;6.57;4.90;;;;;;;-140.05;100.00;61859.38;5109937;28;20677;-65
2022/06/14 04:43:50;;;;;;;2.10;2.00;;;;;;;-140.05;100.00;61859.38;5101143;28;20196;-66
2022/06/14 04:46:27;;;;;;;0.70;0.63;;;;;;;-140.05;100.00;61859.38;5094257;28;20202;-67
2022/06/14 04:49:26;;;;;;;1.77;1.40;;;;;;;-140.05;100.00;61859.38;5095557;28;20915;-67
2022/06/14 04:51:59;;;;;;;0.93;0.80;;;;;;;-140.05;100.00;61859.38;5105287;28;20708;-68
2022/06/14 04:54:56;;;;;;;1.57;1.17;;;;;;;-140.05;100.00;61859.38;5110437;28;20255;-67
2022/06/14 04:57:49;;;;;;;4.10;2.83;;;;;;;-140.05;100.00;61859.38;5091793;28;20652;-69
2022/06/14 05:00:24;;;;;;;3.43;2.10;;;;;;;-140.05;100.00;61859.38;5100407;28;20214;-69
2022/06/14 05:03:00;;;;;;;6.93;5.97;;;;;;;-140.05;100.00;61859.38;5110403;28;20194;-68
2022/06/14 05:05:39;;;;;;;6.13;4.10;;;;;;;-140.05;100.00;61859.38;5110391;28;20190;-67
2022/06/14 05:08:24;;;;;;;4.50;2.60;;;;;;;-140.05;100.00;61859.38;5097662;28;20321;-69
2022/06/14 05:10:57;;;;;;;1.37;1.20;;;;;;;-140.05;100.00;61859.38;5096495;28;20207;-66
2022/06/14 05:13:43;;;;;;;2.83;1.07;;;;;;;-140.05;100.00;61859.38;5102241;28;20273;-68
2022/06/14 05:16:15;;;;;;;1.50;1.40;;;;;;;-140.05;100.00;61859.38;5107965;28;20517;-69
2022/06/14 05:18:49;;;;;;;0.93;0.93;;;;;;;-140.05;100.00;61859.38;5110829;28;20209;-68
2022/06/14 05:21:47;;;;;;;1.13;1.10;;;;;;;-140.05;100.00;61859.38;5111284;28;20213;-69
2022/06/14 05:24:15;;;;;;;2.27;1.53;;;;;;;-140.05;100.00;61859.38;5110933;28;20624;-70
2022/06/14 05:26:50;;;;;;;0.97;0.90;;;;;;;-140.05;100.00;61859.38;5096482;28;20256;-68
2022/06/14 05:29:49;;;;;;;2.80;1.57;;;;;;;-140.05;100.00;61859.38;5110690;28;20198;-69
2022/06/14 05:32:25;;;;;;;1.33;0.77;;;;;;;-140.05;100.00;61859.38;5077185;28;20242;-68
2022/06/14 05:35:02;;;;;;;1.10;1.00;;;;;;;-140.05;100.00;61859.38;5096481;27;20536;-69
2022/06/14 05:38:01;;;;;;;0.80;0.77;;;;;;;-140.05;100.00;61859.38;5110012;28;20191;-69
2022/06/14 05:40:37;;;;;;;2.30;2.10;;;;;;;-140.05;100.00;61859.38;5089874;28;20203;-69
2022/06/14 05:43:14;;;;;;;1.40;1.10;;;;;;;-140.05;100.00;61859.38;5089969;28;20706;-69
2022/06/14 05:45:51;;;;;;;1.57;1.47;;;;;;;-140.05;100.00;61859.38;5101791;28;20191;-68
2022/06/14 05:48:29;;;;;;;0.97;0.97;;;;;;;-140.05;100.00;61859.38;5091954;28;20203;-68
2022/06/14 05:50:59;;;;;;;2.23;2.03;;;;;;;-140.05;100.00;61859.38;5097227;28;20218;-69
2022/06/14 05:53:36;;;;;;;1.37;1.23;;;;;;;-140.05;100.00;61859.38;5109759;28;20206;-69
2022/06/14 05:56:16;;;;;;;0.67;0.67;;;;;;;-140.05;100.00;61859.38;5109822;28;20665;-69
2022/06/14 05:59:05;;;;;;;0.97;0.97;;;;;;;-140.05;100.00;61859.38;5095823;28;20294;-70
2022/06/14 06:01:39;;;;;;;0.50;0.50;;;;;;;-140.05;100.00;61859.38;5097992;28;20190;-69
2022/06/14 06:04:13;;;;;;;0.90;0.77;;;;;;;-140.05;100.00;61859.38;5109135;28;20272;-69
2022/06/14 06:07:03;;;;;;;9.90;2.20;;;;;;;-140.05;100.00;61859.38;5100419;28;20199;-69
2022/06/14 06:09:35;;;;;;;0.40;0.40;;;;;;;-140.05;100.00;61859.38;5093014;28;20197;-69
2022/06/14 06:12:06;;;;;;;0.50;0.50;;;;;;;-140.05;100.00;61859.38;5109724;28;20236;-69
2022/06/14 06:14:45;;;;;;;0.53;0.53;;;;;;;-140.05;100.00;61859.38;5108697;28;20540;-71
2022/06/14 06:17:22;;;;;;;1.10;1.10;;;;;;;-140.05;100.00;61859.38;5109264;28;20198;-68
2022/06/14 06:20:06;;;;;;;0.40;0.40;;;;;;;-140.05;100.00;61859.38;5109060;28;20673;-70
2022/06/14 06:22:55;;;;;;;8.87;1.83;;;;;;;-140.05;100.00;61859.38;5109178;28;20282;-70
2022/06/14 06:25:29;;;;;;;1.57;1.07;;;;;;;-140.05;100.00;61859.38;5088543;28;20253;-69
2022/06/14 06:28:13;;;;;;;0.57;0.57;;;;;;;-140.05;100.00;61859.38;5103121;28;20199;-69
2022/06/14 06:30:46;;;;;;;1.63;0.83;;;;;;;-140.05;100.00;61859.38;5099519;28;20198;-69
2022/06/14 06:33:16;;;;;;;0.60;0.60;;;;;;;-140.05;100.00;61859.38;5109558;28;20202;-69
2022/06/14 06:35:54;;;;;;;1.00;0.93;;;;;;;-140.05;100.00;61859.38;5108990;28;20267;-70
2022/06/14 06:38:49;;;;;;;0.90;0.87;;;;;;;-140.05;100.00;61859.38;5094606;28;20633;-70
2022/06/14 06:44:36;;;;;;;0.70;0.70;;;;;;;-140.05;100.00;61859.38;5097761;28;20195;-69
2022/06/14 06:47:15;;;;;;;0.77;0.77;;;;;;;-140.05;100.00;61859.38;5102424;28;20195;-69
2022/06/14 06:50:00;;;;;;;0.60;0.60;;;;;;;-140.05;100.00;61859.38;5101850;28;20206;-69
2022/06/14 06:53:19;;;;;;;0.70;0.70;;;;;;;-140.05;100.00;61859.38;5096213;28;20210;-69
2022/06/14 06:55:56;;;;;;;0.53;0.47;;;;;;;-140.05;100.00;61859.38;5045231;28;20220;-69
2022/06/14 06:58:34;;;;;;;2.30;1.70;;;;;;;-140.05;100.00;61859.38;5045351;28;20238;-69
2022/06/14 07:01:06;;;;;;;1.20;0.60;;;;;;;-140.05;100.00;61859.38;5071975;28;20224;-70
2022/06/14 07:03:45;;;;;;;0.87;0.83;;;;;;;-140.05;100.00;61859.38;5099843;28;20202;-70
2022/06/14 07:06:27;;;;;;;0.47;0.47;;;;;;;-140.05;100.00;61859.38;5094479;28;20247;-68
2022/06/14 07:08:59;;;;;;;0.63;0.63;;;;;;;-140.05;100.00;61859.38;5094911;28;20199;-68
2022/06/14 07:11:33;;;;;;;1.13;0.93;;;;;;;-140.05;100.00;61859.38;5095046;28;20226;-68
2022/06/14 07:14:13;;;;;;;0.40;0.40;;;;;;;-140.05;100.00;61859.38;5108744;28;20195;-71
2022/06/14 07:17:03;;;;;;;0.70;0.70;;;;;;;-140.05;100.00;61859.38;5101081;28;20244;-68
2022/06/14 07:19:40;;;;;;;0.67;0.67;;;;;;;-140.05;100.00;61859.38;5091079;28;20195;-70
2022/06/14 07:22:16;;;;;;;1.20;1.10;;;;;;;-140.05;100.00;61859.38;5108758;28;20561;-69
2022/06/14 07:24:56;;;;;;;0.80;0.80;;;;;;;-140.05;100.00;61859.38;5107656;28;20194;-68
2022/06/14 07:27:59;;;;;;;1.00;0.93;;;;;;;-140.05;100.00;61859.38;5108379;28;20190;-70
2022/06/14 07:30:32;;;;;;;0.73;0.73;;;;;;;-140.05;100.00;61859.38;5099682;28;20222;-72
2022/06/14 07:33:01;;;;;;;0.63;0.63;;;;;;;-140.05;100.00;61859.38;5089064;28;20227;-69
2022/06/14 07:35:39;;;;;;;0.80;0.80;;;;;;;-140.05;100.00;61859.38;5108304;28;20202;-69
2022/06/14 07:38:20;;;;;;;0.53;0.53;;;;;;;-140.05;100.00;61859.38;5106088;28;20922;-69
2022/06/14 07:40:59;;;;;;;0.93;0.93;;;;;;;-140.05;100.00;61859.38;5097846;28;20198;-70
2022/06/14 07:43:30;;;;;;;0.57;0.57;;;;;;;-140.05;100.00;61859.38;5103036;28;20655;-71
2022/06/14 07:46:05;;;;;;;0.60;0.60;;;;;;;-140.05;100.00;61859.38;5087099;28;20195;-71
2022/06/14 07:48:45;;;;;;;0.60;0.60;;;;;;;-140.05;100.00;61859.38;5087669;28;20187;-70
2022/06/14 07:51:28;;;;;;;0.63;0.60;;;;;;;-140.05;100.00;61859.38;5097818;28;20597;-69
2022/06/14 07:54:13;;;;;;;0.60;0.60;;;;;;;-140.05;100.00;61859.38;5107488;28;20194;-71
2022/06/14 07:56:59;;;;;;;0.50;0.50;;;;;;;-140.05;100.00;61859.38;5110316;28;20276;-69
2022/06/14 07:59:33;;;;;;;0.83;0.83;;;;;;;-140.05;100.00;61859.38;5091276;28;20202;-69
2022/06/14 08:02:29;;;;;;;0.77;0.77;;;;;;;-140.05;100.00;61859.38;5092079;28;20307;-71
2022/06/14 08:05:06;;;;;;;0.70;0.70;;;;;;;-140.05;100.00;61859.38;5100378;28;20241;-70
2022/06/14 08:07:34;;;;;;;1.07;0.90;;;;;;;-140.05;100.00;61859.38;5095439;28;20195;-69
2022/06/14 08:10:18;;;;;;;1.97;1.40;;;;;;;-140.05;100.00;61859.38;5100174;28;20187;-69
2022/06/14 08:13:02;;;;;;;1.20;1.10;;;;;;;-140.05;100.00;61859.38;5094418;28;20315;-69
2022/06/14 08:15:40;;;;;;;0.83;0.70;;;;;;;-140.05;100.00;61859.38;5091652;28;20225;-69
2022/06/14 08:18:17;;;;;;;0.60;0.60;;;;;;;-140.05;100.00;61859.38;5111029;28;20605;-70
2022/06/14 08:20:51;;;;;;;0.57;0.53;;;;;;;-140.05;100.00;61859.38;5099119;28;20194;-69
2022/06/14 08:23:43;;;;;;;0.60;0.60;;;;;;;-140.05;100.00;61859.38;5105433;28;20195;-70
2022/06/14 08:26:20;;;;;;;6.03;1.40;;;;;;;-140.05;100.00;61859.38;5096907;28;20230;-68
2022/06/14 08:28:53;;;;;;;0.70;0.70;;;;;;;-140.05;100.00;61859.38;5100718;28;20198;-69
2022/06/14 08:31:56;;;;;;;0.67;0.67;;;;;;;-140.05;100.00;61859.38;5111564;28;20206;-70
2022/06/14 08:35:03;;;;;;;1.43;1.33;;;;;;;-140.05;100.00;61859.38;5104129;28;20305;-69
2022/06/14 08:37:38;;;;;;;0.70;0.70;;;;;;;-140.05;100.00;61859.38;5039012;28;20592;-70
2022/06/14 08:40:42;;;;;;;0.70;0.70;;;;;;;-140.05;100.00;61859.38;5089605;28;20241;-69
2022/06/14 08:43:13;;;;;;;0.40;0.40;;;;;;;-140.05;100.00;61859.38;5109901;28;20190;-71
2022/06/14 08:45:42;;;;;;;1.40;0.77;;;;;;;-140.05;100.00;61859.38;5091031;28;20316;-68
2022/06/14 08:49:00;;;;;;;0.67;0.67;;;;;;;-140.05;100.00;61859.38;5092791;28;20187;-69
2022/06/14 08:51:54;;;;;;;0.77;0.70;;;;;;;-140.05;100.00;61859.38;5075151;28;20206;-69
2022/06/14 08:54:39;;;;;;;0.57;0.57;;;;;;;-140.05;100.00;61859.38;5090369;28;20264;-69
2022/06/14 08:57:08;;;;;;;0.80;0.80;;;;;;;-140.05;100.00;61859.38;5106143;28;20202;-71
2022/06/14 09:00:02;;;;;;;0.40;0.40;;;;;;;-140.05;100.00;61859.38;5097819;28;20527;-69
2022/06/14 09:03:19;;;;;;;0.93;0.87;;;;;;;-140.05;100.00;61859.38;5096551;28;20203;-69
2022/06/14 09:05:55;;;;;;;0.40;0.40;;;;;;;-140.05;100.00;61859.38;5085177;28;20206;-69
2022/06/14 09:08:55;;;;;;;1.00;0.70;;;;;;;-140.05;100.00;61859.38;5089490;28;20202;-70
2022/06/14 09:11:22;;;;;;;0.67;0.67;;;;;;;-140.05;100.00;61859.38;5104760;28;20278;-69
2022/06/14 09:14:09;;;;;;;1.20;1.10;;;;;;;-140.05;100.00;61859.38;5090522;28;20195;-71
2022/06/14 09:16:54;;;;;;;0.83;0.70;;;;;;;-140.05;100.00;61859.38;5099005;28;20551;-69
2022/06/14 09:19:24;;;;;;;0.97;0.83;;;;;;;-140.05;100.00;61859.38;5095971;28;20340;-69
2022/06/14 09:22:25;;;;;;;1.47;1.10;;;;;;;-140.05;100.00;61859.38;5102523;28;20202;-70
2022/06/14 09:25:09;;;;;;;0.60;0.60;;;;;;;-140.05;100.00;61859.38;5108753;28;20226;-72
2022/06/14 09:27:54;;;;;;;1.00;0.77;;;;;;;-140.05;100.00;61859.38;5110869;28;20237;-68
2022/06/14 09:30:45;;;;;;;0.87;0.80;;;;;;;-140.05;100.00;61859.38;5102463;28;20240;-70
2022/06/14 09:33:38;;;;;;;0.50;0.50;;;;;;;-140.05;100.00;61859.38;5089649;28;20724;-70
2022/06/14 09:36:33;;;;;;;0.90;0.90;;;;;;;-140.05;100.00;61859.38;5063038;28;20602;-70
2022/06/14 09:39:26;;;;;;;1.10;0.90;;;;;;;-140.05;100.00;61859.38;5099060;28;20210;-70
2022/06/14 09:42:21;;;;;;;0.50;0.50;;;;;;;-140.05;100.00;61859.38;5089911;28;20202;-69
2022/06/14 09:45:06;;;;;;;0.77;0.77;;;;;;;-140.05;100.00;61859.38;5109742;28;20545;-69
2022/06/14 09:48:05;;;;;;;0.60;0.60;;;;;;;-140.05;100.00;61859.38;5101938;28;20256;-70
2022/06/14 09:50:47;;;;;;;0.80;0.80;;;;;;;-140.05;100.00;61859.38;5089267;28;20189;-70
2022/06/14 09:53:42;;;;;;;0.80;0.80;;;;;;;-140.05;100.00;61859.38;5089659;28;20227;-70
2022/06/14 09:56:32;;;;;;;0.50;0.50;;;;;;;-140.05;100.00;61859.38;5097818;28;20285;-71
2022/06/14 09:59:28;;;;;;;1.80;1.20;;;;;;;-140.05;100.00;61859.38;5089899;28;20670;-71
2022/06/14 10:02:27;;;;;;;0.67;0.67;;;;;;;-140.05;100.00;61859.38;5110156;28;20194;-70
2022/06/14 10:05:03;;;;;;;1.20;1.03;;;;;;;-140.05;100.00;61859.38;5100965;28;20199;-70
2022/06/14 10:08:06;;;;;;;1.50;1.40;;;;;;;-140.05;100.00;61859.38;5089667;28;20237;-67
2022/06/14 10:10:51;;;;;;;0.50;0.50;;;;;;;-140.05;100.00;61859.38;5102604;28;20202;-67
2022/06/14 10:13:57;;;;;;;0.60;0.50;;;;;;;-140.05;100.00;61859.38;5096997;28;20205;-70
2022/06/14 10:16:57;;;;;;;0.50;0.50;;;;;;;-140.05;100.00;61859.38;5095655;28;20198;-68
2022/06/14 10:19:45;;;;;;;0.67;0.67;;;;;;;-140.05;100.00;61859.38;5091349;28;20206;-67
2022/06/14 10:22:27;;;;;;;0.70;0.70;;;;;;;-140.05;100.00;61859.38;5111586;28;20213;-69
2022/06/14 10:25:19;;;;;;;0.83;0.40;;;;;;;-140.05;100.00;61859.38;5110337;28;20237;-67
2022/06/14 10:28:20;;;;;;;0.40;0.40;;;;;;;-140.05;100.00;61859.38;5110811;28;20313;-68
2022/06/14 10:31:09;;;;;;;0.30;0.30;;;;;;;-140.05;100.00;61859.38;5100679;28;20583;-67
2022/06/14 10:34:07;;;;;;;2.67;1.03;;;;;;;-140.05;100.00;61859.38;5102052;28;20732;-66
2022/06/14 10:36:54;;;;;;;0.47;0.47;;;;;;;-140.05;100.00;61859.38;5105666;28;20289;-66
2022/06/14 10:39:42;;;;;;;0.53;0.30;;;;;;;-140.05;100.00;61859.38;5109009;28;20259;-67
2022/06/14 10:42:31;;;;;;;0.20;0.20;;;;;;;-140.05;100.00;61859.38;5109364;28;20198;-66
2022/06/14 10:45:03;;;;;;;0.60;0.50;;;;;;;-140.05;100.00;61859.38;5094461;28;20202;-67
2022/06/14 10:47:43;;;;;;;0.87;0.57;;;;;;;-140.05;100.00;61859.38;5099585;28;20201;-71
2022/06/14 10:50:52;;;;;;;0.43;0.43;;;;;;;-140.05;100.00;61859.38;5102936;28;20205;-67
2022/06/14 10:53:44;;;;;;;0.53;0.53;;;;;;;-140.05;100.00;61859.38;5058634;28;20330;-70
2022/06/14 10:56:26;;;;;;;0.53;0.53;;;;;;;-140.05;100.00;61859.38;5065552;28;20200;-68
2022/06/14 10:59:15;;;;;;;0.57;0.50;;;;;;;-140.05;100.00;61859.38;5084883;28;20721;-68
2022/06/14 11:02:03;;;;;;;0.70;0.70;;;;;;;-140.05;100.00;61859.38;5098674;28;20252;-66
2022/06/14 11:04:34;;;;;;;0.50;0.50;;;;;;;-140.05;100.00;61859.38;5102868;28;20192;-67
2022/06/14 11:07:26;;;;;;;0.60;0.50;;;;;;;-140.05;100.00;61859.38;5100217;28;20233;-66
2022/06/14 11:10:15;;;;;;;0.60;0.60;;;;;;;-140.05;100.00;61859.38;5095836;28;20226;-67
2022/06/14 11:13:00;;;;;;;0.30;0.30;;;;;;;-140.05;100.00;61859.38;5108041;28;20325;-70
2022/06/14 11:15:56;;;;;;;0.40;0.40;;;;;;;-140.05;100.00;61859.38;5108406;28;20202;-69
2022/06/14 11:18:52;;;;;;;0.30;0.30;;;;;;;-140.05;100.00;61859.38;5088527;28;20194;-68
2022/06/14 11:21:53;;;;;;;0.80;0.73;;;;;;;-140.05;100.00;61859.38;5102802;28;20583;-67
2022/06/14 11:24:30;;;;;;;0.53;0.53;;;;;;;-140.05;100.00;61859.38;5102634;28;20210;-68
2022/06/14 11:27:35;;;;;;;0.30;0.30;;;;;;;-140.05;100.00;61859.38;5108318;28;20281;-68
2022/06/14 11:30:08;;;;;;;0.67;0.67;;;;;;;-140.05;100.00;61859.38;5089710;28;20293;-68
2022/06/14 11:32:53;;;;;;;0.50;0.50;;;;;;;-140.05;100.00;61859.38;5108777;28;20211;-66
2022/06/14 11:35:29;;;;;;;0.67;0.67;;;;;;;-140.05;100.00;61859.38;5095212;28;20255;-68
2022/06/14 11:38:01;;;;;;;0.63;0.63;;;;;;;-140.05;100.00;61859.38;5108470;28;20700;-68
2022/06/14 11:40:31;;;;;;;0.33;0.33;;;;;;;-140.05;100.00;61859.38;5108337;28;20205;-69
2022/06/14 11:43:10;;;;;;;0.60;0.60;;;;;;;-140.05;100.00;61859.38;5108792;28;20231;-68
2022/06/14 11:45:37;;;;;;;0.80;0.80;;;;;;;-140.05;100.00;61859.38;5100475;28;20658;-69
2022/06/14 11:48:46;;;;;;;0.53;0.50;;;;;;;-140.05;100.00;61859.38;5090274;28;20195;-67
2022/06/14 11:51:39;;;;;;;0.50;0.50;;;;;;;-140.05;100.00;61859.38;5055177;28;20199;-69
2022/06/14 11:54:38;;;;;;;0.40;0.40;;;;;;;-140.05;100.00;61859.38;5088373;28;20225;-68
2022/06/14 11:57:13;;;;;;;0.20;0.20;;;;;;;-140.05;100.00;61859.38;5102423;28;20293;-69
2022/06/14 12:00:07;;;;;;;0.40;0.40;;;;;;;-140.05;100.00;61859.38;5095487;28;20577;-68
2022/06/14 12:02:51;;;;;;;0.37;0.33;;;;;;;-140.05;100.00;61859.38;5093170;28;20195;-70
2022/06/14 12:05:33;;;;;;;0.77;0.77;;;;;;;-140.05;100.00;61859.38;5108135;28;20202;-69
2022/06/14 12:08:39;;;;;;;0.63;0.63;;;;;;;-140.05;100.00;61859.38;5108385;28;20199;-70
2022/06/14 12:11:26;;;;;;;0.30;0.30;;;;;;;-140.05;100.00;61859.38;5092603;28;20205;-68
2022/06/14 12:13:53;;;;;;;0.37;0.37;;;;;;;-140.05;100.00;61859.38;5107880;28;20306;-66
2022/06/14 12:16:37;;;;;;;0.40;0.40;;;;;;;-140.05;100.00;61859.38;5093194;28;20190;-69
2022/06/14 12:19:11;;;;;;;0.30;0.30;;;;;;;-140.05;100.00;61859.38;5107561;28;20547;-65
2022/06/14 12:21:43;;;;;;;0.67;0.67;;;;;;;-140.05;100.00;61859.38;5094410;28;20285;-63
2022/06/14 12:24:19;;;;;;;0.63;0.60;;;;;;;-140.05;100.00;61859.38;5106929;28;20206;-64